Time;durP1;ratioP1;P1;durP2;ratioP2;P2;SDS_P1;SDS_P2;PMS_P1;PMS_P2;Temp;Humidity;BMP_temperature;BMP_pressure;BME280_temperature;BME280_humidity;BME280_pressure;Samples;Min_cycle;Max_cycle;Signal;HPM_P1;HPM_P2
2021/07/29 00:00:59;;;;;;;7.03;2.15;;;17.00;99.90;;;;;;5012249;28;20053;-75
2021/07/29 00:03:24;;;;;;;7.97;1.98;;;17.00;99.90;;;;;;5012380;28;20513;-73
2021/07/29 00:05:50;;;;;;;21.20;2.42;;;17.10;99.90;;;;;;5011793;28;20109;-74
2021/07/29 00:08:17;;;;;;;8.48;2.38;;;16.40;99.90;;;;;;5005023;28;20038;-73
2021/07/29 00:10:44;;;;;;;8.43;2.60;;;16.60;99.90;;;;;;5007412;28;20117;-74
2021/07/29 00:13:09;;;;;;;8.02;2.55;;;17.10;99.90;;;;;;5011837;28;20382;-74
2021/07/29 00:15:35;;;;;;;8.73;2.28;;;16.60;99.90;;;;;;5012445;28;20022;-74
2021/07/29 00:20:27;;;;;;;5.47;1.95;;;16.30;99.90;;;;;;5011916;28;20470;-74
2021/07/29 00:22:57;;;;;;;7.47;2.33;;;16.90;99.90;;;;;;5012876;28;20030;-75
2021/07/29 00:25:24;;;;;;;8.68;2.50;;;16.50;99.90;;;;;;5012752;28;20040;-74
2021/07/29 00:27:51;;;;;;;5.70;2.42;;;16.20;99.90;;;;;;5011301;28;20100;-74
2021/07/29 00:30:18;;;;;;;13.15;2.58;;;16.10;99.90;;;;;;4996968;28;20027;-75
2021/07/29 00:32:44;;;;;;;6.25;2.50;;;16.50;99.90;;;;;;4997950;28;20025;-75
2021/07/29 00:35:14;;;;;;;6.35;2.30;;;15.70;99.90;;;;;;5003792;28;20038;-76
2021/07/29 00:37:44;;;;;;;8.77;2.40;;;15.80;99.90;;;;;;4999988;28;20029;-75
2021/07/29 00:40:11;;;;;;;10.98;2.70;;;16.70;99.90;;;;;;5011549;28;20026;-74
2021/07/29 00:42:36;;;;;;;8.57;2.70;;;15.70;99.90;;;;;;5011630;28;20033;-75
2021/07/29 00:45:03;;;;;;;9.48;2.80;;;15.70;99.90;;;;;;5011281;28;20018;-73
2021/07/29 00:47:31;;;;;;;8.50;3.30;;;15.70;99.90;;;;;;5011125;28;20046;-74
2021/07/29 00:50:00;;;;;;;8.02;2.60;;;16.60;99.90;;;;;;5011823;28;20049;-74
2021/07/29 00:52:25;;;;;;;12.68;2.90;;;15.70;99.90;;;;;;5011745;28;20026;-73
2021/07/29 00:54:52;;;;;;;11.73;2.88;;;16.60;99.90;;;;;;5011029;28;20033;-74
2021/07/29 00:57:20;;;;;;;12.30;3.50;;;16.30;99.90;;;;;;5012029;28;20022;-75
2021/07/29 00:59:46;;;;;;;10.40;2.78;;;15.60;99.90;;;;;;5011975;28;20021;-74
2021/07/29 01:02:13;;;;;;;10.65;3.33;;;15.60;99.90;;;;;;5011134;28;20041;-74
2021/07/29 01:04:39;;;;;;;10.80;2.70;;;16.40;99.90;;;;;;5010914;28;20072;-73
2021/07/29 01:07:04;;;;;;;10.95;2.63;;;16.30;99.90;;;;;;5001704;28;20077;-75
2021/07/29 01:09:33;;;;;;;12.68;2.47;;;15.50;99.90;;;;;;5002158;28;20037;-74
2021/07/29 01:11:58;;;;;;;10.77;2.90;;;15.50;99.90;;;;;;5011610;28;20062;-75
2021/07/29 01:14:24;;;;;;;9.40;2.80;;;15.50;99.90;;;;;;5014535;28;20407;-75
2021/07/29 01:16:50;;;;;;;14.32;3.50;;;15.50;99.90;;;;;;5015737;28;20406;-74
2021/07/29 01:19:20;;;;;;;10.27;2.58;;;15.50;99.90;;;;;;5015937;28;20474;-73
2021/07/29 01:21:45;;;;;;;10.68;2.75;;;15.50;99.90;;;;;;5015606;28;20044;-75
2021/07/29 01:24:11;;;;;;;13.48;3.70;;;15.60;99.90;;;;;;5008259;28;20385;-74
2021/07/29 01:26:36;;;;;;;12.52;3.13;;;15.90;99.90;;;;;;5008815;28;20057;-74
2021/07/29 01:29:02;;;;;;;11.68;2.83;;;15.90;99.90;;;;;;5008206;28;20026;-74
2021/07/29 01:31:28;;;;;;;12.18;3.22;;;15.60;99.90;;;;;;5005315;28;20033;-76
2021/07/29 01:33:56;;;;;;;9.45;2.67;;;15.60;99.90;;;;;;5015150;28;20026;-76
2021/07/29 01:36:23;;;;;;;10.32;3.22;;;15.60;99.90;;;;;;5014633;28;20056;-73
2021/07/29 01:38:48;;;;;;;11.00;2.97;;;15.70;99.90;;;;;;5015224;28;20025;-74
2021/07/29 01:41:14;;;;;;;16.33;3.20;;;15.60;99.90;;;;;;5015051;28;20030;-74
2021/07/29 01:43:40;;;;;;;11.50;3.25;;;15.70;99.90;;;;;;5014470;28;20022;-75
2021/07/29 01:46:05;;;;;;;9.23;3.40;;;15.70;99.90;;;;;;5014739;28;20061;-74
2021/07/29 01:48:32;;;;;;;16.58;3.38;;;15.60;99.90;;;;;;5014764;28;20030;-74
2021/07/29 01:50:58;;;;;;;9.07;2.75;;;15.70;99.90;;;;;;5013840;28;20080;-73
2021/07/29 01:53:24;;;;;;;8.90;3.58;;;15.60;99.90;;;;;;5014925;28;20022;-74
2021/07/29 01:55:50;;;;;;;13.48;3.13;;;16.30;99.90;;;;;;5014317;28;20121;-74
2021/07/29 01:58:17;;;;;;;13.93;3.08;;;15.70;99.90;;;;;;5013819;28;20065;-74
2021/07/29 02:00:45;;;;;;;14.75;3.22;;;15.70;99.90;;;;;;5013514;28;20041;-74
2021/07/29 02:03:11;;;;;;;10.50;3.05;;;16.60;99.90;;;;;;5009193;28;20474;-74
2021/07/29 02:05:37;;;;;;;8.90;3.20;;;15.80;99.90;;;;;;5004939;28;20076;-72
2021/07/29 02:08:04;;;;;;;12.00;3.78;;;17.00;99.90;;;;;;5014426;28;20068;-74
2021/07/29 02:10:29;;;;;;;16.35;3.55;;;15.70;99.90;;;;;;5014583;28;20029;-74
2021/07/29 02:12:56;;;;;;;16.77;3.63;;;15.70;99.90;;;;;;5014186;28;20022;-73
2021/07/29 02:15:22;;;;;;;19.85;4.10;;;16.30;99.90;;;;;;5014930;28;20034;-73
2021/07/29 02:17:47;;;;;;;19.60;4.25;;;15.60;99.90;;;;;;5014384;28;20026;-74
2021/07/29 02:20:13;;;;;;;15.93;3.65;;;15.80;99.90;;;;;;5014147;28;20105;-73
2021/07/29 02:22:40;;;;;;;14.43;4.10;;;15.50;99.90;;;;;;5014581;28;20470;-74
2021/07/29 02:25:06;;;;;;;13.65;3.33;;;15.40;99.90;;;;;;5013853;28;20025;-73
2021/07/29 02:27:33;;;;;;;15.32;3.97;;;15.40;99.90;;;;;;5014155;28;20026;-73
2021/07/29 02:29:58;;;;;;;12.80;3.60;;;15.30;99.90;;;;;;5014005;28;20022;-73
2021/07/29 02:32:25;;;;;;;13.07;3.33;;;15.20;99.90;;;;;;5014388;28;20128;-74
2021/07/29 02:34:54;;;;;;;14.73;3.53;;;15.10;99.90;;;;;;5013277;28;20474;-73
2021/07/29 02:37:20;;;;;;;16.83;3.90;;;15.00;99.90;;;;;;5014206;28;20109;-73
2021/07/29 02:39:45;;;;;;;13.88;3.38;;;15.00;99.90;;;;;;5013239;28;20029;-73
2021/07/29 02:42:11;;;;;;;15.27;3.83;;;15.00;99.90;;;;;;5014304;28;20569;-74
2021/07/29 02:44:37;;;;;;;13.95;3.72;;;15.00;99.90;;;;;;5007036;28;20034;-73
2021/07/29 02:47:02;;;;;;;19.00;3.63;;;15.00;99.90;;;;;;5005596;28;20049;-73
2021/07/29 02:49:28;;;;;;;8.00;3.25;;;15.00;99.90;;;;;;5014102;28;20022;-74
2021/07/29 02:51:54;;;;;;;10.02;2.97;;;15.80;99.90;;;;;;5013708;28;20057;-74
2021/07/29 02:54:20;;;;;;;6.65;2.28;;;14.90;99.90;;;;;;5012924;28;20034;-74
2021/07/29 02:56:45;;;;;;;13.38;2.65;;;14.90;99.90;;;;;;5013767;28;20591;-75
2021/07/29 02:59:11;;;;;;;14.00;3.58;;;15.30;99.90;;;;;;5013624;28;20474;-74
2021/07/29 03:01:36;;;;;;;7.47;2.55;;;15.00;99.90;;;;;;5012970;28;20037;-73
2021/07/29 03:04:02;;;;;;;4.45;2.55;;;14.70;99.90;;;;;;5013814;28;20049;-73
2021/07/29 03:06:28;;;;;;;6.82;2.97;;;14.60;99.90;;;;;;5013924;28;20064;-74
2021/07/29 03:08:53;;;;;;;7.57;2.53;;;14.60;99.90;;;;;;5012484;28;20049;-73
2021/07/29 03:11:19;;;;;;;8.02;3.45;;;14.60;99.90;;;;;;5008301;28;20030;-73
2021/07/29 03:13:45;;;;;;;5.15;2.10;;;14.60;99.90;;;;;;5004970;28;20029;-73
2021/07/29 03:16:11;;;;;;;7.88;2.40;;;14.50;99.90;;;;;;5012951;28;20018;-73
2021/07/29 03:18:37;;;;;;;15.10;3.00;;;14.50;99.90;;;;;;5013450;28;20033;-74
2021/07/29 03:21:06;;;;;;;5.47;2.28;;;14.40;99.90;;;;;;5013072;28;20049;-73
2021/07/29 03:23:31;;;;;;;5.10;2.28;;;14.40;99.90;;;;;;5012710;28;20018;-73
2021/07/29 03:25:57;;;;;;;3.83;2.30;;;14.90;99.90;;;;;;5013086;28;20033;-73
2021/07/29 03:28:22;;;;;;;6.80;2.00;;;14.40;99.90;;;;;;5013076;28;20018;-72
2021/07/29 03:30:48;;;;;;;11.18;2.38;;;14.30;99.90;;;;;;5012401;28;20497;-74
2021/07/29 03:33:14;;;;;;;5.38;2.00;;;14.30;99.90;;;;;;5011797;28;20037;-73
2021/07/29 03:35:40;;;;;;;10.45;2.33;;;14.30;99.90;;;;;;5011376;28;20057;-74
2021/07/29 03:38:07;;;;;;;9.88;2.17;;;14.20;99.90;;;;;;5011953;28;20096;-73
2021/07/29 03:40:34;;;;;;;7.78;2.50;;;14.20;99.90;;;;;;5012719;28;20014;-74
2021/07/29 03:43:02;;;;;;;18.23;3.03;;;14.60;99.90;;;;;;5012117;28;20108;-74
2021/07/29 03:45:32;;;;;;;18.33;3.45;;;14.30;99.90;;;;;;5012698;28;20026;-73
2021/07/29 03:47:59;;;;;;;20.30;4.17;;;14.20;99.90;;;;;;5012490;28;20050;-73
2021/07/29 03:50:28;;;;;;;17.20;3.80;;;14.20;99.90;;;;;;5011756;28;20033;-74
2021/07/29 03:52:54;;;;;;;10.65;4.10;;;14.30;99.90;;;;;;5012410;28;20022;-74
2021/07/29 03:55:20;;;;;;;13.20;3.42;;;15.20;99.90;;;;;;5012889;28;20037;-74
2021/07/29 03:57:46;;;;;;;13.52;3.17;;;14.40;99.90;;;;;;5011570;28;20010;-73
2021/07/29 04:00:12;;;;;;;16.35;3.72;;;14.40;99.90;;;;;;5012649;28;20030;-74
2021/07/29 04:02:39;;;;;;;16.92;3.47;;;14.40;99.90;;;;;;5012187;28;20030;-73
2021/07/29 04:05:05;;;;;;;14.23;3.85;;;14.40;99.90;;;;;;5001378;28;20022;-73
2021/07/29 04:07:32;;;;;;;18.33;3.95;;;14.40;99.90;;;;;;5002324;28;20029;-73
2021/07/29 04:09:58;;;;;;;12.85;3.13;;;14.40;99.90;;;;;;5000657;28;20029;-74
2021/07/29 04:12:23;;;;;;;14.50;2.75;;;14.40;99.90;;;;;;5011979;28;20474;-73
2021/07/29 04:14:49;;;;;;;13.00;3.15;;;14.40;99.90;;;;;;5012036;28;20050;-74
2021/07/29 04:17:16;;;;;;;22.63;4.13;;;14.50;99.90;;;;;;5012400;28;20030;-72
2021/07/29 04:19:41;;;;;;;18.23;4.28;;;14.50;99.90;;;;;;5008910;28;20032;-73
2021/07/29 04:22:07;;;;;;;17.25;3.80;;;15.20;99.90;;;;;;4999968;28;20041;-73
2021/07/29 04:24:34;;;;;;;15.45;3.08;;;14.70;99.90;;;;;;5004280;28;20028;-74
2021/07/29 04:27:01;;;;;;;20.42;3.75;;;14.50;99.90;;;;;;4998843;28;20080;-75
2021/07/29 04:29:27;;;;;;;15.23;3.47;;;14.60;99.90;;;;;;4994911;28;20030;-74
2021/07/29 04:31:53;;;;;;;20.50;3.75;;;14.60;99.90;;;;;;5006017;28;20038;-73
2021/07/29 04:34:19;;;;;;;19.20;4.10;;;14.60;99.90;;;;;;4998001;28;20025;-73
2021/07/29 04:36:47;;;;;;;18.98;3.60;;;14.60;99.90;;;;;;5000124;28;20027;-74
2021/07/29 04:39:13;;;;;;;22.73;3.78;;;14.60;99.90;;;;;;4999207;28;20421;-74
2021/07/29 04:41:43;;;;;;;14.55;4.57;;;14.70;99.90;;;;;;5001168;28;20044;-74
2021/07/29 04:44:10;;;;;;;15.73;3.50;;;15.70;99.90;;;;;;5011772;28;20436;-75
2021/07/29 04:46:37;;;;;;;15.15;3.78;;;15.30;99.90;;;;;;5010578;28;20390;-74
2021/07/29 04:49:07;;;;;;;10.93;3.28;;;14.90;99.90;;;;;;5013646;28;20025;-73
2021/07/29 04:51:42;;;;;;;22.88;3.25;;;15.20;99.90;;;;;;5016386;28;20037;-73
2021/07/29 04:54:08;;;;;;;21.27;3.60;;;15.00;99.90;;;;;;5015350;28;20084;-74
2021/07/29 04:56:35;;;;;;;19.42;3.33;;;15.00;99.90;;;;;;5016043;28;20030;-74
2021/07/29 04:59:00;;;;;;;17.33;3.33;;;15.00;99.90;;;;;;5012125;28;20029;-74
2021/07/29 05:01:26;;;;;;;15.00;2.88;;;15.80;99.90;;;;;;4995867;28;20049;-73
2021/07/29 05:03:52;;;;;;;13.88;3.15;;;14.90;99.90;;;;;;5000387;28;20030;-73
2021/07/29 05:06:17;;;;;;;21.25;3.88;;;14.90;99.90;;;;;;5002082;28;20112;-73
2021/07/29 05:08:43;;;;;;;12.77;3.85;;;14.90;99.90;;;;;;5014864;28;20022;-73
2021/07/29 05:11:10;;;;;;;14.43;3.58;;;14.90;99.90;;;;;;5015630;28;20030;-73
2021/07/29 05:13:38;;;;;;;19.73;2.67;;;14.90;99.90;;;;;;5015582;28;20029;-73
2021/07/29 05:16:05;;;;;;;8.07;3.15;;;15.00;99.90;;;;;;5014530;28;20029;-73
2021/07/29 05:18:32;;;;;;;8.73;3.17;;;15.00;99.90;;;;;;5015570;28;20026;-74
2021/07/29 05:21:08;;;;;;;17.60;2.58;;;15.00;99.90;;;;;;5015224;28;20026;-73
2021/07/29 05:23:34;;;;;;;9.52;2.60;;;15.90;99.90;;;;;;5013044;28;20029;-73
2021/07/29 05:26:00;;;;;;;16.42;3.40;;;15.00;99.90;;;;;;5005995;28;20047;-73
2021/07/29 05:28:26;;;;;;;12.40;2.72;;;15.10;99.90;;;;;;5008864;28;20045;-73
2021/07/29 05:30:52;;;;;;;11.07;2.65;;;15.10;99.90;;;;;;5010262;28;20057;-73
2021/07/29 05:33:18;;;;;;;43.08;4.28;;;15.20;99.90;;;;;;5011906;28;20597;-75
2021/07/29 05:35:44;;;;;;;9.68;2.92;;;15.20;99.90;;;;;;5006886;28;20101;-74
2021/07/29 05:38:10;;;;;;;11.13;3.17;;;15.20;99.90;;;;;;5008382;28;20022;-73
2021/07/29 05:40:36;;;;;;;16.58;3.88;;;15.30;99.90;;;;;;5004474;28;20026;-74
2021/07/29 05:43:02;;;;;;;17.65;3.58;;;15.30;99.90;;;;;;5011126;28;20505;-73
2021/07/29 05:45:32;;;;;;;13.50;3.60;;;15.30;99.90;;;;;;5012821;28;20112;-73
2021/07/29 05:47:58;;;;;;;14.23;3.38;;;15.40;99.90;;;;;;5012919;28;20049;-74
2021/07/29 05:50:24;;;;;;;16.25;4.15;;;15.50;99.90;;;;;;5010186;28;20041;-73
2021/07/29 05:52:49;;;;;;;12.65;4.05;;;15.50;99.90;;;;;;4999707;28;20026;-74
2021/07/29 05:55:15;;;;;;;16.13;4.20;;;15.60;99.90;;;;;;4994254;28;20026;-73
2021/07/29 05:57:41;;;;;;;15.13;4.85;;;15.70;99.90;;;;;;5012666;28;20401;-75
2021/07/29 06:00:07;;;;;;;14.07;3.42;;;15.80;99.90;;;;;;5003734;28;20073;-73
2021/07/29 06:02:33;;;;;;;13.30;3.60;;;16.00;99.90;;;;;;5005538;28;20116;-72
2021/07/29 06:04:58;;;;;;;13.13;3.35;;;16.10;99.90;;;;;;4998392;28;20070;-72
2021/07/29 06:07:26;;;;;;;15.35;3.50;;;16.10;99.90;;;;;;4997785;28;20053;-73
2021/07/29 06:09:52;;;;;;;12.60;3.60;;;16.10;99.90;;;;;;5000502;28;20033;-73
2021/07/29 06:12:24;;;;;;;15.00;3.22;;;16.00;99.90;;;;;;5005738;28;20026;-73
2021/07/29 06:14:51;;;;;;;16.85;3.70;;;16.30;99.90;;;;;;5001994;28;20409;-73
2021/07/29 06:17:16;;;;;;;14.65;3.17;;;16.40;99.90;;;;;;5001833;28;20113;-73
2021/07/29 06:19:42;;;;;;;15.10;3.30;;;16.10;99.90;;;;;;4994529;28;20533;-73
2021/07/29 06:22:08;;;;;;;15.73;3.42;;;16.20;99.90;;;;;;5006568;28;20117;-74
2021/07/29 06:24:33;;;;;;;15.57;3.67;;;16.20;99.90;;;;;;5003483;28;20097;-73
2021/07/29 06:26:59;;;;;;;16.02;2.72;;;16.30;99.90;;;;;;5000289;28;20033;-73
2021/07/29 06:29:25;;;;;;;15.40;3.53;;;16.30;99.90;;;;;;4998965;28;20466;-74
2021/07/29 06:31:50;;;;;;;18.20;3.53;;;16.30;99.90;;;;;;4999117;28;20101;-73
2021/07/29 06:34:16;;;;;;;20.83;3.75;;;16.40;99.90;;;;;;4998980;28;20073;-74
2021/07/29 06:36:42;;;;;;;12.23;2.92;;;16.40;99.90;;;;;;5002341;28;20351;-74
2021/07/29 06:39:07;;;;;;;14.00;2.70;;;16.40;99.90;;;;;;5003014;28;20088;-75
2021/07/29 06:41:33;;;;;;;11.70;3.47;;;16.50;99.90;;;;;;5000621;28;20054;-74
2021/07/29 06:44:00;;;;;;;15.80;3.20;;;17.60;99.90;;;;;;4997985;28;20022;-74
2021/07/29 06:46:26;;;;;;;14.98;3.30;;;16.90;99.90;;;;;;4999397;28;20026;-74
2021/07/29 06:48:51;;;;;;;15.60;3.30;;;17.00;99.90;;;;;;5000549;28;20024;-74
2021/07/29 06:51:17;;;;;;;12.25;3.10;;;16.70;99.90;;;;;;4997708;28;20022;-75
2021/07/29 06:53:43;;;;;;;13.32;3.17;;;16.70;99.90;;;;;;4995963;28;20042;-74
2021/07/29 06:56:08;;;;;;;20.00;2.92;;;17.30;99.90;;;;;;4995517;28;20463;-75
2021/07/29 06:58:35;;;;;;;11.13;3.67;;;17.50;99.90;;;;;;4999122;28;20476;-75
2021/07/29 07:01:05;;;;;;;8.65;3.47;;;17.50;99.90;;;;;;5005877;28;20506;-74
2021/07/29 07:03:31;;;;;;;9.25;2.80;;;16.90;99.90;;;;;;4997495;28;20460;-76
2021/07/29 07:06:01;;;;;;;16.63;4.25;;;17.30;99.90;;;;;;5012610;28;20030;-75
2021/07/29 07:08:38;;;;;;;10.37;3.07;;;17.40;99.90;;;;;;4996914;28;20030;-74
2021/07/29 07:11:06;;;;;;;18.88;3.83;;;17.10;99.90;;;;;;5005510;28;20261;-75
2021/07/29 07:13:32;;;;;;;16.48;3.40;;;17.80;99.90;;;;;;5012745;28;20030;-75
2021/07/29 07:15:57;;;;;;;14.90;3.00;;;17.10;99.90;;;;;;5011441;28;20031;-75
2021/07/29 07:18:23;;;;;;;11.82;3.80;;;17.10;99.90;;;;;;5012076;28;20109;-74
2021/07/29 07:20:49;;;;;;;17.17;3.20;;;17.90;99.90;;;;;;5006256;28;20026;-74
2021/07/29 07:23:14;;;;;;;13.10;3.00;;;17.40;99.90;;;;;;5007008;28;20027;-73
2021/07/29 07:25:40;;;;;;;16.85;3.50;;;17.20;99.90;;;;;;5005472;28;20025;-75
2021/07/29 07:28:06;;;;;;;14.98;2.75;;;18.10;99.90;;;;;;5010913;28;20029;-76
2021/07/29 07:30:31;;;;;;;14.15;3.00;;;17.80;99.90;;;;;;4993830;28;20061;-75
2021/07/29 07:32:58;;;;;;;17.80;3.65;;;17.40;99.90;;;;;;5007203;28;20037;-75
2021/07/29 07:35:24;;;;;;;11.93;2.38;;;16.60;99.90;;;;;;5007904;28;20079;-75
2021/07/29 07:37:55;;;;;;;10.60;2.88;;;18.10;99.90;;;;;;5011408;28;20030;-74
2021/07/29 07:40:20;;;;;;;11.77;3.03;;;17.50;99.90;;;;;;5012073;28;20022;-75
2021/07/29 07:42:47;;;;;;;10.98;3.08;;;17.80;99.90;;;;;;5010818;28;20038;-75
2021/07/29 07:45:13;;;;;;;10.10;2.22;;;18.00;99.90;;;;;;5012234;28;20140;-74
2021/07/29 07:47:39;;;;;;;12.15;2.88;;;18.10;99.90;;;;;;5012098;28;20137;-75
2021/07/29 07:50:05;;;;;;;12.90;3.15;;;18.10;99.90;;;;;;5010536;28;20025;-75
2021/07/29 07:52:30;;;;;;;8.15;2.60;;;18.10;99.90;;;;;;5012856;28;20068;-75
2021/07/29 07:54:57;;;;;;;22.15;3.88;;;18.20;99.90;;;;;;5012481;28;20529;-74
2021/07/29 07:57:23;;;;;;;9.77;2.88;;;18.30;99.90;;;;;;5011984;28;20026;-75
2021/07/29 07:59:50;;;;;;;11.20;2.67;;;18.30;99.90;;;;;;5012284;28;20500;-75
2021/07/29 08:02:16;;;;;;;10.73;2.97;;;18.40;99.90;;;;;;5012300;28;20175;-73
2021/07/29 08:04:41;;;;;;;16.05;3.20;;;18.40;99.90;;;;;;5011815;28;20112;-75
2021/07/29 08:07:07;;;;;;;9.82;3.15;;;18.40;99.90;;;;;;5012135;28;20026;-74
2021/07/29 08:09:33;;;;;;;13.00;3.03;;;18.30;99.90;;;;;;5012600;28;20034;-75
2021/07/29 08:11:58;;;;;;;8.55;2.83;;;18.20;99.90;;;;;;5011915;28;20021;-75
2021/07/29 08:14:24;;;;;;;14.95;2.50;;;18.20;99.90;;;;;;5012639;28;20029;-74
2021/07/29 08:16:49;;;;;;;11.20;3.45;;;18.10;99.90;;;;;;5006663;28;20057;-73
2021/07/29 08:19:15;;;;;;;6.97;2.22;;;18.20;99.90;;;;;;5010177;28;20028;-76
2021/07/29 08:21:41;;;;;;;10.90;2.80;;;18.10;99.90;;;;;;5007896;28;20110;-75
2021/07/29 08:24:06;;;;;;;9.32;2.80;;;18.10;99.90;;;;;;5005456;28;20183;-75
2021/07/29 08:26:32;;;;;;;7.80;2.70;;;18.00;99.90;;;;;;4998300;28;20422;-75
2021/07/29 08:28:57;;;;;;;8.07;2.50;;;18.00;99.90;;;;;;5002486;28;20453;-76
2021/07/29 08:31:23;;;;;;;12.70;3.25;;;17.90;99.90;;;;;;5000889;28;20096;-75
2021/07/29 08:33:49;;;;;;;13.77;3.20;;;18.00;99.90;;;;;;5008875;28;20417;-76
2021/07/29 08:36:17;;;;;;;10.05;1.90;;;18.20;99.90;;;;;;5010530;28;20030;-75
2021/07/29 08:38:43;;;;;;;10.15;2.28;;;18.30;99.90;;;;;;5010468;28;20034;-77
2021/07/29 08:41:10;;;;;;;6.03;1.90;;;18.30;99.90;;;;;;5009297;28;20113;-75
2021/07/29 08:43:37;;;;;;;6.10;1.88;;;18.30;99.90;;;;;;5008829;28;20034;-74
2021/07/29 08:46:04;;;;;;;10.02;2.10;;;18.40;99.90;;;;;;5007008;28;20478;-75
2021/07/29 08:48:31;;;;;;;12.77;2.78;;;18.40;99.90;;;;;;5008174;28;20045;-73
2021/07/29 08:50:58;;;;;;;7.10;2.80;;;18.30;99.90;;;;;;5007226;28;20026;-75
2021/07/29 08:53:23;;;;;;;6.72;1.73;;;18.40;99.90;;;;;;5009307;28;20018;-74
2021/07/29 08:55:54;;;;;;;6.90;1.80;;;18.30;99.90;;;;;;5008843;28;20018;-75
2021/07/29 08:58:20;;;;;;;4.57;2.33;;;18.40;99.90;;;;;;5009793;28;20025;-73
2021/07/29 09:01:05;;;;;;;7.18;2.30;;;18.40;99.90;;;;;;5006277;28;20034;-74
2021/07/29 09:03:35;;;;;;;6.63;1.67;;;18.30;99.90;;;;;;5007552;28;20022;-75
2021/07/29 09:06:05;;;;;;;11.35;1.88;;;18.30;99.90;;;;;;5007731;28;20041;-75
2021/07/29 09:08:43;;;;;;;;;;;18.30;99.90;;;;;;5007019;28;20055;-75
2021/07/29 09:11:44;;;;;;;6.88;2.85;;;18.30;99.90;;;;;;5006590;28;20325;-74
2021/07/29 09:14:16;;;;;;;7.35;2.72;;;18.30;99.90;;;;;;4950107;28;20055;-74
2021/07/29 09:17:07;;;;;;;4.90;1.67;;;18.30;99.90;;;;;;4998448;28;20034;-75
2021/07/29 09:19:39;;;;;;;5.13;1.75;;;18.40;99.90;;;;;;5005405;28;20053;-73
2021/07/29 09:22:09;;;;;;;7.78;2.40;;;18.30;99.90;;;;;;5004314;28;20076;-76
2021/07/29 09:24:35;;;;;;;9.38;2.05;;;18.30;99.90;;;;;;5010053;28;20018;-76
2021/07/29 09:27:01;;;;;;;8.68;1.90;;;18.40;99.90;;;;;;4998245;28;20018;-76
2021/07/29 09:29:28;;;;;;;9.15;1.77;;;18.50;99.90;;;;;;4991654;28;20022;-75
2021/07/29 09:32:22;;;;;;;4.28;1.83;;;18.70;99.90;;;;;;4999222;28;20101;-76
2021/07/29 09:34:51;;;;;;;9.50;2.28;;;18.80;99.90;;;;;;4998711;28;20092;-76
2021/07/29 09:37:19;;;;;;;5.72;1.80;;;19.10;99.90;;;;;;5003593;28;20050;-76
2021/07/29 09:39:56;;;;;;;5.85;1.75;;;18.90;99.90;;;;;;4995933;28;20092;-76
2021/07/29 09:42:23;;;;;;;7.22;2.10;;;19.20;99.90;;;;;;5008140;28;20030;-76
2021/07/29 09:44:51;;;;;;;6.88;2.03;;;18.60;99.90;;;;;;5004961;28;20101;-74
2021/07/29 09:47:18;;;;;;;7.38;1.80;;;18.90;99.90;;;;;;5001596;28;20137;-74
2021/07/29 09:49:44;;;;;;;12.30;2.10;;;18.80;99.90;;;;;;4994943;28;20493;-73
2021/07/29 09:52:10;;;;;;;12.88;2.83;;;19.00;99.90;;;;;;4995094;28;20462;-73
2021/07/29 09:54:47;;;;;;;9.38;1.98;;;18.90;99.90;;;;;;4999943;28;20033;-73
2021/07/29 09:57:13;;;;;;;10.93;2.08;;;19.00;99.90;;;;;;4999394;28;20023;-75
2021/07/29 09:59:39;;;;;;;11.65;2.30;;;19.00;99.90;;;;;;4998323;28;20022;-74
2021/07/29 10:02:06;;;;;;;12.65;2.40;;;19.10;99.90;;;;;;4995714;28;20073;-74
2021/07/29 10:04:49;;;;;;;7.20;2.00;;;19.30;99.90;;;;;;4995766;28;20018;-74
2021/07/29 10:07:31;;;;;;;7.20;2.13;;;19.30;99.90;;;;;;5012563;28;20104;-74
2021/07/29 10:09:59;;;;;;;7.38;2.42;;;19.50;99.90;;;;;;4997175;28;20486;-72
2021/07/29 10:12:29;;;;;;;5.68;2.28;;;19.50;99.90;;;;;;5008972;28;20389;-74
2021/07/29 10:14:56;;;;;;;8.27;2.30;;;19.50;99.90;;;;;;5010505;28;20080;-74
2021/07/29 10:17:33;;;;;;;6.50;2.13;;;19.50;99.90;;;;;;5004208;28;20556;-73
2021/07/29 10:20:15;;;;;;;8.27;2.53;;;19.50;99.90;;;;;;4998552;28;20022;-72
2021/07/29 10:22:42;;;;;;;3.92;2.00;;;19.50;99.90;;;;;;4997945;28;20040;-73
2021/07/29 10:25:08;;;;;;;4.97;1.92;;;19.60;99.90;;;;;;4998594;28;20045;-73
2021/07/29 10:27:33;;;;;;;6.57;1.55;;;19.60;99.90;;;;;;4998322;28;20493;-73
2021/07/29 10:30:20;;;;;;;10.05;2.03;;;19.60;99.90;;;;;;5001779;28;20029;-74
2021/07/29 10:32:47;;;;;;;6.88;2.03;;;19.50;99.90;;;;;;5004339;28;20049;-73
2021/07/29 10:35:35;;;;;;;5.53;1.88;;;19.90;99.90;;;;;;5006642;28;20470;-73
2021/07/29 10:38:01;;;;;;;5.93;1.88;;;19.70;99.90;;;;;;4993886;28;20042;-73
2021/07/29 10:40:38;;;;;;;4.00;1.70;;;19.60;99.90;;;;;;5004740;28;20481;-73
2021/07/29 10:43:25;;;;;;;6.63;1.75;;;19.70;99.90;;;;;;4995962;28;20226;-73
2021/07/29 10:45:58;;;;;;;6.97;2.13;;;19.50;99.90;;;;;;4997318;28;20169;-73
2021/07/29 10:48:43;;;;;;;7.50;1.92;;;19.80;99.90;;;;;;4995329;28;20054;-71
2021/07/29 10:51:14;;;;;;;4.50;1.80;;;19.90;99.90;;;;;;4997425;28;20061;-73
2021/07/29 10:53:47;;;;;;;6.50;1.88;;;20.00;99.90;;;;;;4997803;28;20026;-73
2021/07/29 10:56:14;;;;;;;5.00;1.80;;;20.20;99.90;;;;;;4998991;28;20019;-73
2021/07/29 10:58:41;;;;;;;8.07;2.00;;;20.20;99.90;;;;;;4998291;28;20030;-73
2021/07/29 11:01:10;;;;;;;6.72;1.67;;;20.80;99.90;;;;;;4998698;28;20030;-73
2021/07/29 11:03:45;;;;;;;9.52;1.88;;;20.00;99.40;;;;;;5000934;28;20038;-73
2021/07/29 11:06:13;;;;;;;7.60;2.03;;;19.90;99.90;;;;;;4999530;28;20033;-72
2021/07/29 11:08:40;;;;;;;13.35;2.08;;;20.00;99.90;;;;;;4994452;28;20030;-73
2021/07/29 11:11:07;;;;;;;8.45;2.05;;;20.80;99.90;;;;;;5007132;28;20037;-73
2021/07/29 11:13:35;;;;;;;5.55;1.80;;;20.40;99.90;;;;;;4997076;28;20034;-73
2021/07/29 11:16:01;;;;;;;6.97;1.90;;;20.40;99.90;;;;;;4998971;28;20042;-73
2021/07/29 11:18:27;;;;;;;7.95;1.90;;;20.40;99.90;;;;;;5000508;28;20109;-73
2021/07/29 11:20:53;;;;;;;8.73;2.08;;;20.70;99.90;;;;;;4997077;28;20032;-73
2021/07/29 11:23:37;;;;;;;7.00;1.77;;;21.00;99.90;;;;;;4998154;28;20022;-73
2021/07/29 11:26:05;;;;;;;4.55;2.42;;;20.80;99.90;;;;;;5007095;28;20049;-73
2021/07/29 11:28:32;;;;;;;2.88;1.80;;;20.90;98.20;;;;;;5003479;28;20037;-73
2021/07/29 11:30:58;;;;;;;10.02;2.65;;;21.00;98.80;;;;;;4994293;28;20134;-73
2021/07/29 11:33:25;;;;;;;7.00;2.10;;;21.20;99.20;;;;;;4997627;28;20035;-72
2021/07/29 11:35:52;;;;;;;4.63;1.77;;;21.40;99.60;;;;;;4998851;28;20018;-74
2021/07/29 11:38:22;;;;;;;9.02;1.83;;;22.00;99.90;;;;;;5009089;28;20069;-74
2021/07/29 11:40:57;;;;;;;10.50;2.13;;;21.40;98.50;;;;;;5010332;28;20025;-73
2021/07/29 11:43:26;;;;;;;8.27;2.88;;;21.30;98.60;;;;;;5009774;28;20056;-73
2021/07/29 11:45:51;;;;;;;11.48;3.05;;;21.20;98.30;;;;;;5010007;28;20068;-74
2021/07/29 11:48:24;;;;;;;8.95;2.65;;;21.20;98.20;;;;;;5005281;28;20054;-73
2021/07/29 11:50:51;;;;;;;15.13;3.08;;;21.20;98.10;;;;;;5004292;28;20054;-72
2021/07/29 11:53:18;;;;;;;8.95;2.42;;;21.30;99.10;;;;;;5008331;28;20029;-72
2021/07/29 11:55:54;;;;;;;12.63;3.17;;;21.50;99.50;;;;;;5005912;28;20125;-73
2021/07/29 11:58:20;;;;;;;11.02;2.78;;;21.50;98.60;;;;;;5009465;28;20022;-74
2021/07/29 12:00:48;;;;;;;16.48;3.20;;;21.60;98.40;;;;;;5010000;28;20109;-72
2021/07/29 12:03:33;;;;;;;9.43;2.30;;;21.50;97.80;;;;;;5009681;28;20025;-72
2021/07/29 12:06:00;;;;;;;10.05;3.15;;;21.70;97.40;;;;;;5009914;28;20030;-73
2021/07/29 12:08:28;;;;;;;7.10;2.05;;;22.90;99.00;;;;;;5009513;28;20026;-74
2021/07/29 12:10:56;;;;;;;20.35;2.85;;;21.90;97.70;;;;;;5008444;28;20021;-73
2021/07/29 12:13:23;;;;;;;11.57;2.65;;;21.80;98.20;;;;;;5009058;28;20385;-74
2021/07/29 12:15:54;;;;;;;16.25;2.97;;;21.90;97.40;;;;;;5007091;28;20478;-73
2021/07/29 12:18:21;;;;;;;;;;;22.90;97.00;;;;;;5007781;28;20036;-73
2021/07/29 12:20:49;;;;;;;8.68;2.88;;;22.10;95.80;;;;;;5008668;28;19962;-73
2021/07/29 12:23:16;;;;;;;11.45;3.88;;;22.20;96.10;;;;;;5006025;28;20029;-74
2021/07/29 12:25:43;;;;;;;17.73;3.13;;;22.20;96.40;;;;;;5008326;28;20466;-74
2021/07/29 12:28:09;;;;;;;14.82;2.72;;;22.40;96.50;;;;;;5007681;28;20021;-73
2021/07/29 12:30:43;;;;;;;12.48;3.03;;;22.40;95.90;;;;;;5009267;28;20022;-74
2021/07/29 12:33:21;;;;;;;15.05;2.53;;;23.00;96.10;;;;;;5008541;28;20046;-73
2021/07/29 12:36:01;;;;;;;9.95;2.65;;;23.00;96.10;;;;;;5006645;28;20018;-73
2021/07/29 12:38:30;;;;;;;11.77;2.07;;;22.50;95.40;;;;;;5009129;28;20036;-73
2021/07/29 12:40:56;;;;;;;8.65;2.55;;;22.30;95.20;;;;;;5007937;28;20040;-73
2021/07/29 12:43:24;;;;;;;9.82;2.70;;;22.90;96.30;;;;;;5009999;28;20486;-72
2021/07/29 12:45:53;;;;;;;7.78;1.80;;;22.90;96.10;;;;;;5007274;28;20080;-73